Terminal Aerodrome Forecast
Issued by NWS

Home | Current Version | Previous Version | Text Only | Print | Product List | Glossary On
Versions: 1 2 3 4 5 6 7 8 9 10 11 12 13 14
000
FTUS45 KRIW 310536
TAFCOD
TAF
KCOD 310536Z 3106/0106 25013G25KT P6SM FEW110
     FM310900 32008KT P6SM SKC
     FM311600 15009KT P6SM FEW110
     FM010400 25009G17KT P6SM SKC
      AMD LTD TO CLD VIS AND WIND=

USA.gov is the U.S. government's official web portal to all federal, state and local government web resources and services.